Canby, California
Current Conditions -  °F | °C
As of 10:55 AM on Tuesday 21 Oct 2014 (Local Time) from KAAT Reporting Station
Overcast Overcast  
Wind Chill: 44°   Ceiling: 2400
Heat Index: 47°   Visibility: 10mi
Dew Point: 37°   Wind: 6mph
Humidity: 68%   Direction: 220°SW
Pressure: 30.15"   Gusts: NA
Location:  41.44°N, 120.87°W
Report Text: KAAT 211755Z AUTO 22005KT 10SM BKN024 OVC028 08/03 A3015 RMK AO2 SLP205 60001 T00830028 10083 20028 51008
Loading
Personal Weather Stations






























Interactive Weather Map
Tropical Storm Tracking
New forecast layout! Learn more

10-Day Weather Forecast

Advertisements
Track Severe Weather on mobile